createdAt,value
2023-04-19T00:01:25.113Z,10.20
2023-04-19T00:04:11.424Z,10.03
2023-04-19T00:06:58.514Z,9.14
2023-04-19T00:09:44.473Z,9.77
2023-04-19T00:12:30.831Z,9.81
2023-04-19T00:15:16.282Z,9.78
2023-04-19T00:18:02.014Z,8.67
2023-04-19T00:20:48.822Z,9.92
2023-04-19T00:23:34.969Z,9.99
2023-04-19T00:26:20.470Z,9.84
2023-04-19T00:29:11.174Z,8.62
2023-04-19T00:31:57.348Z,9.77
2023-04-19T00:34:42.869Z,8.75
2023-04-19T00:37:28.379Z,8.74
2023-04-19T00:40:14.266Z,8.85
2023-04-19T00:43:00.625Z,9.77
2023-04-19T00:45:46.402Z,9.85
2023-04-19T00:48:32.257Z,9.80
2023-04-19T00:51:18.263Z,9.37
2023-04-19T00:54:04.279Z,9.86
2023-04-19T00:56:51.065Z,8.63
2023-04-19T00:59:39.690Z,9.78
2023-04-19T01:02:28.048Z,9.66
2023-04-19T01:05:13.927Z,9.58
2023-04-19T01:07:59.612Z,9.49
2023-04-19T01:10:47.784Z,9.60
2023-04-19T01:13:34.698Z,8.46
2023-04-19T01:16:20.370Z,9.36
2023-04-19T01:19:08.564Z,9.62
2023-04-19T01:21:53.989Z,9.56
2023-04-19T01:24:39.882Z,9.56
2023-04-19T01:27:26.988Z,8.75
2023-04-19T01:30:12.877Z,9.65
2023-04-19T01:32:58.499Z,8.35
2023-04-19T01:35:43.761Z,9.42
2023-04-19T01:38:29.100Z,9.51
2023-04-19T01:41:14.475Z,9.49
2023-04-19T01:44:01.046Z,8.38
2023-04-19T01:46:46.752Z,9.48
2023-04-19T01:49:31.932Z,9.28
2023-04-19T01:52:17.476Z,8.48
2023-04-19T01:55:02.845Z,8.34
2023-04-19T01:57:48.775Z,9.56
2023-04-19T02:00:34.692Z,8.55
2023-04-19T02:03:22.775Z,8.27
2023-04-19T02:06:12.758Z,8.24
2023-04-19T02:08:58.013Z,9.35
2023-04-19T02:11:43.396Z,9.27
2023-04-19T02:14:28.788Z,9.17
2023-04-19T02:17:14.418Z,8.94
2023-04-19T02:20:00.155Z,8.13
2023-04-19T02:22:47.834Z,8.05
2023-04-19T02:25:33.612Z,7.91
2023-04-19T02:28:18.859Z,9.12
2023-04-19T02:31:06.157Z,9.13
2023-04-19T02:33:54.047Z,8.11
2023-04-19T02:36:39.378Z,8.57
2023-04-19T02:39:24.823Z,9.06
2023-04-19T02:42:10.346Z,9.01
2023-04-19T02:44:55.867Z,8.56
2023-04-19T02:47:43.493Z,7.90
2023-04-19T02:50:29.278Z,8.33
2023-04-19T02:53:14.790Z,8.52
2023-04-19T02:56:01.641Z,8.91
2023-04-19T02:58:47.464Z,8.95
2023-04-19T03:01:33.085Z,9.03
2023-04-19T03:04:22.187Z,8.96
2023-04-19T03:07:10.109Z,7.80
2023-04-19T03:09:57.421Z,9.03
2023-04-19T03:12:43.939Z,9.08
2023-04-19T03:15:30.288Z,7.93
2023-04-19T03:18:17.601Z,9.08
2023-04-19T03:21:03.864Z,8.68
2023-04-19T03:23:56.857Z,9.04
2023-04-19T03:26:43.735Z,8.82
2023-04-19T03:29:30.060Z,9.01
2023-04-19T03:32:19.366Z,8.94
2023-04-19T03:35:05.471Z,8.79
2023-04-19T03:37:51.626Z,8.87
2023-04-19T03:40:38.570Z,7.74
2023-04-19T03:43:25.478Z,7.77
2023-04-19T03:46:11.306Z,8.50
2023-04-19T03:48:56.700Z,7.92
2023-04-19T03:51:42.172Z,8.68
2023-04-19T03:54:27.713Z,8.53
2023-04-19T03:57:14.677Z,8.52
2023-04-19T04:00:00.503Z,8.70
2023-04-19T04:02:46.426Z,7.47
2023-04-19T04:05:33.222Z,8.70
2023-04-19T04:08:19.288Z,8.62
2023-04-19T04:11:05.792Z,8.69
2023-04-19T04:13:51.481Z,8.76
2023-04-19T04:16:41.752Z,7.83
2023-04-19T04:19:27.532Z,8.63
2023-04-19T04:22:13.401Z,8.86
2023-04-19T04:25:02.286Z,8.76
2023-04-19T04:27:56.345Z,8.65
2023-04-19T04:30:45.006Z,8.82
2023-04-19T04:33:31.992Z,7.99
2023-04-19T04:36:19.021Z,8.63
2023-04-19T04:39:06.354Z,8.86
2023-04-19T04:41:53.265Z,8.73
2023-04-19T04:44:39.128Z,8.97
2023-04-19T04:47:31.696Z,8.98
2023-04-19T04:50:22.501Z,8.99
2023-04-19T04:53:08.323Z,8.93
2023-04-19T04:55:54.994Z,9.01
2023-04-19T04:58:40.698Z,9.06
2023-04-19T05:01:30.953Z,8.94
2023-04-19T05:04:16.968Z,8.71
2023-04-19T05:07:02.768Z,9.06
2023-04-19T05:09:47.972Z,9.00
2023-04-19T05:12:55.587Z,9.20
2023-04-19T05:16:01.971Z,9.26
2023-04-19T05:18:51.523Z,9.05
2023-04-19T05:21:52.590Z,9.20
2023-04-19T05:24:42.368Z,9.23
2023-04-19T05:27:29.869Z,9.02
2023-04-19T05:30:16.280Z,8.97
2023-04-19T05:33:05.150Z,9.07
2023-04-19T05:35:54.774Z,9.19
2023-04-19T05:38:49.117Z,8.89
2023-04-19T05:41:40.094Z,9.18
2023-04-19T05:44:28.265Z,9.39
2023-04-19T05:47:19.980Z,9.43
2023-04-19T05:50:37.170Z,8.28
2023-04-19T05:53:49.188Z,9.54
2023-04-19T05:56:35.111Z,8.65
2023-04-19T05:59:21.195Z,9.58
2023-04-19T06:02:07.794Z,9.57
2023-04-19T06:04:54.156Z,8.72
2023-04-19T06:07:43.821Z,9.57
2023-04-19T06:10:53.257Z,9.80
2023-04-19T06:13:45.294Z,9.88
2023-04-19T06:16:31.743Z,9.95
2023-04-19T06:19:17.252Z,9.79
2023-04-19T06:22:03.072Z,8.83
2023-04-19T06:24:48.968Z,10.13
2023-04-19T06:27:34.649Z,9.01
2023-04-19T06:30:20.854Z,10.23
2023-04-19T06:33:06.856Z,9.19
2023-04-19T06:35:52.712Z,9.17
2023-04-19T06:38:38.762Z,10.17
2023-04-19T06:41:24.199Z,10.35
2023-04-19T06:44:11.798Z,10.49
2023-04-19T06:46:57.332Z,10.10
2023-04-19T06:49:43.758Z,10.56
2023-04-19T06:52:30.413Z,10.59
2023-04-19T06:55:16.239Z,10.65
2023-04-19T06:58:01.667Z,10.50
2023-04-19T07:00:50.610Z,10.55
2023-04-19T07:03:36.445Z,10.83
2023-04-19T07:06:22.274Z,10.40
2023-04-19T07:09:08.581Z,10.72
2023-04-19T07:11:55.151Z,10.98
2023-04-19T07:14:43.346Z,10.85
2023-04-19T07:17:29.290Z,10.87
2023-04-19T07:20:16.141Z,11.13
2023-04-19T07:23:01.741Z,10.03
2023-04-19T07:25:48.361Z,11.21
2023-04-19T07:28:35.239Z,11.24
2023-04-19T07:31:21.383Z,11.17
2023-04-19T07:34:07.250Z,11.25
2023-04-19T07:36:53.084Z,10.44
2023-04-19T07:39:39.787Z,11.25
2023-04-19T07:42:26.137Z,11.26
2023-04-19T07:45:11.815Z,11.12
2023-04-19T07:48:00.009Z,11.35
2023-04-19T07:50:46.070Z,11.34
2023-04-19T07:53:32.017Z,11.33
2023-04-19T07:56:17.659Z,11.13
2023-04-19T07:59:08.858Z,10.43
2023-04-19T08:01:55.473Z,11.35
2023-04-19T08:04:45.429Z,11.28
2023-04-19T08:07:31.422Z,11.24
2023-04-19T08:10:20.739Z,11.23
2023-04-19T08:13:07.432Z,11.27
2023-04-19T08:18:42.861Z,11.33
2023-04-19T08:21:40.141Z,10.28
2023-04-19T08:24:31.660Z,11.53
2023-04-19T08:27:20.180Z,11.48
2023-04-19T08:30:08.051Z,10.86
2023-04-19T08:32:56.865Z,10.49
2023-04-19T08:35:46.099Z,11.57
2023-04-19T08:38:33.234Z,11.63
2023-04-19T08:41:22.181Z,10.97
2023-04-19T08:44:17.738Z,11.46
2023-04-19T08:47:20.289Z,10.47
2023-04-19T08:50:28.387Z,11.70
2023-04-19T08:53:25.577Z,10.65
2023-04-19T08:56:21.039Z,10.27
2023-04-19T08:59:18.559Z,11.66
2023-04-19T09:02:06.130Z,11.36
2023-04-19T09:04:52.510Z,11.55
2023-04-19T09:07:40.925Z,11.37
2023-04-19T09:10:27.275Z,11.51
2023-04-19T09:13:15.125Z,10.37
2023-04-19T09:16:01.260Z,11.47
2023-04-19T09:19:08.155Z,11.46
2023-04-19T09:22:13.841Z,11.41
2023-04-19T09:27:49.691Z,11.48
2023-04-19T09:30:40.474Z,11.49
2023-04-19T09:33:41.716Z,11.40
2023-04-19T09:36:30.810Z,11.53
2023-04-19T09:39:38.795Z,11.56
2023-04-19T09:45:46.422Z,11.53
2023-04-19T09:48:32.290Z,11.57
2023-04-19T09:51:17.996Z,10.54
2023-04-19T09:54:03.935Z,11.71
2023-04-19T09:56:51.271Z,11.20
2023-04-19T09:59:40.877Z,11.60
2023-04-19T10:02:33.366Z,11.64
2023-04-19T10:05:21.635Z,11.33
2023-04-19T10:08:19.700Z,11.65
2023-04-19T10:11:06.287Z,10.57
2023-04-19T10:14:01.580Z,11.81
2023-04-19T10:16:52.153Z,10.63
2023-04-19T10:19:41.265Z,11.84
2023-04-19T10:22:29.460Z,10.78
2023-04-19T10:25:16.334Z,11.04
2023-04-19T10:28:01.945Z,11.17
2023-04-19T10:30:54.172Z,12.06
2023-04-19T10:33:41.718Z,10.85
2023-04-19T10:36:29.042Z,12.05
2023-04-19T10:39:42.115Z,12.03
2023-04-19T10:43:05.422Z,12.06
2023-04-19T10:45:52.054Z,11.94
2023-04-19T10:48:41.677Z,12.06
2023-04-19T10:51:28.985Z,12.10
2023-04-19T10:54:35.903Z,12.10
2023-04-19T10:57:25.164Z,12.10
2023-04-19T11:00:26.008Z,12.01
2023-04-19T11:03:50.612Z,12.24
2023-04-19T11:06:38.926Z,11.96
2023-04-19T11:09:35.386Z,12.22
2023-04-19T11:12:21.882Z,12.29
2023-04-19T11:15:09.549Z,12.02
2023-04-19T11:18:11.277Z,12.28
2023-04-19T11:20:58.144Z,12.26
2023-04-19T11:23:43.909Z,11.86
2023-04-19T11:26:31.663Z,12.06
2023-04-19T11:29:20.038Z,11.38
2023-04-19T11:32:05.918Z,12.11
2023-04-19T11:34:52.069Z,12.18
2023-04-19T11:37:40.175Z,12.13
2023-04-19T11:40:26.897Z,11.70
2023-04-19T11:43:12.720Z,11.57
2023-04-19T11:46:09.461Z,11.30
2023-04-19T11:48:55.432Z,12.29
2023-04-19T11:51:42.908Z,12.18
2023-04-19T11:54:29.091Z,12.39
2023-04-19T11:57:15.106Z,12.40
2023-04-19T12:00:07.902Z,12.50
2023-04-19T12:03:03.654Z,12.42
2023-04-19T12:05:54.739Z,12.29
2023-04-19T12:08:47.466Z,11.57
2023-04-19T12:11:50.238Z,12.57
2023-04-19T12:14:36.530Z,12.56
2023-04-19T12:17:22.207Z,12.52
2023-04-19T12:20:08.462Z,12.48
2023-04-19T12:22:54.147Z,12.21
2023-04-19T12:25:41.323Z,11.53
2023-04-19T12:28:27.017Z,12.48
2023-04-19T12:31:12.901Z,12.30
2023-04-19T12:33:58.120Z,12.28
2023-04-19T12:36:43.662Z,11.66
2023-04-19T12:39:29.322Z,12.56
2023-04-19T12:42:14.973Z,11.44
2023-04-19T12:45:01.162Z,12.22
2023-04-19T12:47:47.923Z,12.53
2023-04-19T12:50:33.601Z,12.54
2023-04-19T12:53:19.407Z,11.48
2023-04-19T12:56:05.237Z,12.58
2023-04-19T12:58:53.300Z,11.59
2023-04-19T13:01:38.924Z,12.58
2023-04-19T13:04:24.877Z,11.46
2023-04-19T13:07:10.730Z,12.45
2023-04-19T13:09:56.815Z,12.51
2023-04-19T13:12:42.598Z,11.72
2023-04-19T13:15:29.604Z,12.76
2023-04-19T13:18:15.919Z,12.71
2023-04-19T13:21:01.472Z,11.87
2023-04-19T13:23:47.458Z,12.05
2023-04-19T13:26:37.423Z,12.78
2023-04-19T13:29:23.298Z,12.37
2023-04-19T13:32:12.453Z,11.64
2023-04-19T13:34:58.332Z,12.57
2023-04-19T13:37:46.977Z,12.77
2023-04-19T13:40:32.811Z,12.81
2023-04-19T13:43:18.486Z,12.86
2023-04-19T13:46:03.984Z,12.72
2023-04-19T13:48:49.495Z,12.90
2023-04-19T13:51:46.516Z,12.91
2023-04-19T13:54:38.427Z,11.98
2023-04-19T13:57:24.003Z,12.89
2023-04-19T14:00:11.301Z,12.69
2023-04-19T14:02:57.198Z,12.79
2023-04-19T14:05:44.475Z,12.73
2023-04-19T14:08:31.054Z,12.76
2023-04-19T14:11:17.928Z,12.74
2023-04-19T14:14:03.393Z,12.62
2023-04-19T14:16:48.934Z,12.46
2023-04-19T14:19:35.420Z,11.45
2023-04-19T14:22:20.885Z,12.51
2023-04-19T14:25:06.828Z,12.15
2023-04-19T14:27:53.053Z,12.49
2023-04-19T14:30:39.953Z,12.46
2023-04-19T14:33:27.132Z,12.41
2023-04-19T14:36:17.304Z,12.40
2023-04-19T14:39:03.813Z,12.38
2023-04-19T14:41:49.449Z,12.38
2023-04-19T14:44:35.264Z,12.37
2023-04-19T14:47:22.466Z,11.76
2023-04-19T14:50:08.437Z,11.36
2023-04-19T14:52:54.812Z,11.09
2023-04-19T14:55:40.484Z,11.16
2023-04-19T14:58:26.285Z,12.26
2023-04-19T15:01:13.413Z,12.25
2023-04-19T15:03:59.160Z,12.26
2023-04-19T15:06:45.992Z,11.51
2023-04-19T15:09:33.665Z,11.39
2023-04-19T15:12:20.205Z,12.27
2023-04-19T15:15:07.586Z,12.21
2023-04-19T15:17:56.441Z,11.10
2023-04-19T15:20:42.791Z,11.09
2023-04-19T15:23:28.584Z,12.07
2023-04-19T15:26:14.417Z,12.24
2023-04-19T15:29:00.627Z,11.14
2023-04-19T15:31:46.041Z,12.14
2023-04-19T15:34:31.957Z,12.15
2023-04-19T15:37:17.533Z,12.10
2023-04-19T15:40:03.832Z,11.81
2023-04-19T15:42:59.361Z,12.16
2023-04-19T15:45:52.312Z,11.21
2023-04-19T15:48:38.161Z,11.61
2023-04-19T15:51:23.763Z,11.65
2023-04-19T15:54:11.139Z,12.44
2023-04-19T15:56:57.294Z,12.36
2023-04-19T16:00:09.733Z,12.42
2023-04-19T16:02:58.925Z,12.00
2023-04-19T16:05:44.788Z,11.25
2023-04-19T16:08:31.522Z,12.15
2023-04-19T16:11:17.171Z,12.23
2023-04-19T16:14:03.006Z,12.22
2023-04-19T16:16:49.301Z,11.33
2023-04-19T16:19:35.876Z,12.24
2023-04-19T16:22:22.554Z,12.19
2023-04-19T16:25:10.267Z,12.14
2023-04-19T16:27:56.172Z,11.24
2023-04-19T16:30:41.786Z,12.16
2023-04-19T16:33:27.629Z,11.90
2023-04-19T16:36:13.999Z,12.10
2023-04-19T16:39:00.760Z,11.86
2023-04-19T16:41:46.838Z,11.92
2023-04-19T16:44:32.483Z,11.30
2023-04-19T16:47:21.577Z,11.05
2023-04-19T16:50:07.787Z,11.95
2023-04-19T16:52:53.406Z,12.06
2023-04-19T16:55:39.670Z,12.03
2023-04-19T16:58:27.257Z,10.70
2023-04-19T17:01:17.017Z,11.92
2023-04-19T17:04:13.527Z,11.60
2023-04-19T17:07:02.313Z,11.86
2023-04-19T17:09:59.100Z,11.85
2023-04-19T17:12:47.893Z,11.89
2023-04-19T17:15:38.342Z,10.78
2023-04-19T17:18:27.729Z,11.66
2023-04-19T17:21:16.618Z,11.79
2023-04-19T17:24:21.150Z,11.81
2023-04-19T17:27:21.701Z,11.57
2023-04-19T17:30:08.105Z,11.59
2023-04-19T17:32:53.795Z,11.14
2023-04-19T17:35:39.324Z,11.66
2023-04-19T17:38:24.977Z,11.57
2023-04-19T17:41:16.494Z,10.85
2023-04-19T17:44:01.900Z,11.68
2023-04-19T17:46:47.940Z,11.66
2023-04-19T17:49:33.693Z,10.65
2023-04-19T17:52:19.485Z,11.62
2023-04-19T17:55:10.555Z,11.54
2023-04-19T17:58:01.313Z,11.57
2023-04-19T18:00:50.908Z,11.54
2023-04-19T18:03:49.593Z,11.52
2023-04-19T18:06:41.779Z,10.56
2023-04-19T18:09:28.822Z,10.70
2023-04-19T18:12:16.561Z,10.41
2023-04-19T18:15:02.677Z,11.13
2023-04-19T18:17:49.519Z,11.42
2023-04-19T18:20:35.238Z,11.42
2023-04-19T18:23:20.872Z,11.38
2023-04-19T18:26:06.494Z,11.22
2023-04-19T18:28:55.605Z,11.43
2023-04-19T18:31:42.040Z,11.40
2023-04-19T18:34:28.059Z,10.95
2023-04-19T18:37:16.250Z,10.28
2023-04-19T18:40:02.590Z,11.37
2023-04-19T18:42:48.508Z,11.42
2023-04-19T18:45:33.805Z,11.17
2023-04-19T18:48:20.033Z,11.30
2023-04-19T18:51:09.450Z,11.34
2023-04-19T18:53:55.272Z,11.33
2023-04-19T18:57:11.566Z,10.06
2023-04-19T18:59:46.928Z,11.24
2023-04-19T19:02:34.138Z,11.13
2023-04-19T19:05:20.048Z,10.50
2023-04-19T19:08:06.116Z,10.19
2023-04-19T19:13:40.314Z,10.75
2023-04-19T19:16:26.493Z,10.71
2023-04-19T19:19:12.712Z,11.04
2023-04-19T19:21:58.382Z,10.65
2023-04-19T19:24:43.857Z,10.88
2023-04-19T19:27:30.256Z,10.81
2023-04-19T19:30:16.279Z,10.75
2023-04-19T19:33:04.544Z,10.81
2023-04-19T19:35:50.388Z,10.12
2023-04-19T19:38:37.464Z,10.70
2023-04-19T19:41:58.620Z,10.69
2023-04-19T19:44:28.693Z,10.57
2023-04-19T19:47:16.834Z,10.95
2023-04-19T19:50:46.107Z,11.01
2023-04-19T19:53:11.086Z,10.94
2023-04-19T19:55:56.881Z,10.22
2023-04-19T19:58:48.242Z,10.80
2023-04-19T20:01:35.646Z,10.81
2023-04-19T20:04:22.754Z,10.92
2023-04-19T20:07:32.900Z,9.74
2023-04-19T20:10:15.180Z,11.01
2023-04-19T20:13:01.525Z,10.94
2023-04-19T20:15:47.546Z,10.43
2023-04-19T20:18:34.955Z,10.86
2023-04-19T20:21:20.940Z,9.88
2023-04-19T20:24:07.799Z,11.15
2023-04-19T20:26:53.242Z,9.95
2023-04-19T20:29:38.643Z,11.24
2023-04-19T20:32:25.372Z,11.26
2023-04-19T20:35:12.259Z,10.05
2023-04-19T20:38:02.316Z,10.95
2023-04-19T20:40:48.123Z,10.93
2023-04-19T20:43:33.610Z,10.21
2023-04-19T20:46:19.506Z,11.12
2023-04-19T20:49:05.345Z,11.03
2023-04-19T20:51:51.543Z,9.94
2023-04-19T20:54:38.826Z,9.45
2023-04-19T20:57:24.644Z,10.47
2023-04-19T21:00:11.081Z,10.47
2023-04-19T21:02:56.993Z,9.48
2023-04-19T21:05:42.435Z,10.39
2023-04-19T21:08:27.788Z,9.62
2023-04-19T21:11:13.260Z,10.63
2023-04-19T21:13:58.647Z,10.63
2023-04-19T21:16:44.116Z,10.44
2023-04-19T21:19:30.256Z,10.15
2023-04-19T21:22:16.010Z,9.43
2023-04-19T21:25:01.274Z,10.56
2023-04-19T21:27:46.927Z,10.24
2023-04-19T21:30:32.806Z,10.52
2023-04-19T21:33:18.319Z,9.84
2023-04-19T21:36:04.271Z,10.52
2023-04-19T21:38:49.682Z,10.45
2023-04-19T21:41:35.508Z,9.66
2023-04-19T21:44:21.304Z,9.20
2023-04-19T21:47:07.280Z,9.96
2023-04-19T21:49:53.343Z,10.18
2023-04-19T21:52:38.967Z,9.16
2023-04-19T21:55:25.001Z,10.35
2023-04-19T21:58:10.605Z,9.29
2023-04-19T22:00:56.264Z,10.23
2023-04-19T22:03:41.949Z,9.97
2023-04-19T22:06:27.800Z,8.90
2023-04-19T22:09:13.713Z,9.39
2023-04-19T22:12:00.882Z,10.01
2023-04-19T22:14:46.936Z,8.66
2023-04-19T22:17:32.570Z,8.57
2023-04-19T22:20:18.615Z,9.94
2023-04-19T22:23:04.056Z,9.34
2023-04-19T22:25:49.465Z,9.87
2023-04-19T22:28:36.008Z,9.67
2023-04-19T22:31:21.521Z,9.58
2023-04-19T22:34:06.880Z,8.81
2023-04-19T22:36:52.320Z,8.52
2023-04-19T22:39:37.746Z,8.60
2023-04-19T22:42:23.360Z,8.81
2023-04-19T22:45:09.368Z,9.74
2023-04-19T22:47:54.917Z,9.78
2023-04-19T22:50:41.931Z,9.64
2023-04-19T22:53:27.261Z,9.66
2023-04-19T22:56:12.714Z,8.26
2023-04-19T22:58:58.176Z,9.26
2023-04-19T23:01:43.654Z,9.67
2023-04-19T23:04:33.055Z,9.48
2023-04-19T23:07:20.008Z,8.51
2023-04-19T23:10:06.552Z,9.01
2023-04-19T23:12:56.421Z,9.63
2023-04-19T23:15:42.147Z,9.11
2023-04-19T23:18:27.796Z,9.56
2023-04-19T23:21:13.207Z,9.55
2023-04-19T23:23:58.474Z,9.29
2023-04-19T23:26:44.206Z,9.31
2023-04-19T23:29:29.518Z,9.07
2023-04-19T23:32:15.199Z,9.36
2023-04-19T23:35:00.630Z,9.16
2023-04-19T23:37:45.966Z,8.09
2023-04-19T23:40:31.611Z,8.75
2023-04-19T23:43:16.845Z,9.02
2023-04-19T23:46:02.224Z,8.15
2023-04-19T23:48:47.722Z,8.38
2023-04-19T23:51:33.044Z,8.69
2023-04-19T23:54:21.315Z,9.28
2023-04-19T23:57:07.091Z,8.82
2023-04-19T23:59:52.925Z,8.66
